createdAt,value
2023-05-15T00:02:24.452Z,7.55
2023-05-15T00:04:51.479Z,8.85
2023-05-15T00:07:18.379Z,7.40
2023-05-15T00:09:45.205Z,6.50
2023-05-15T00:12:12.083Z,7.37
2023-05-15T00:14:38.909Z,6.45
2023-05-15T00:17:06.361Z,7.37
2023-05-15T00:19:34.239Z,7.10
2023-05-15T00:22:01.355Z,7.93
2023-05-15T00:24:28.209Z,7.20
2023-05-15T00:26:55.071Z,6.12
2023-05-15T00:29:21.941Z,6.60
2023-05-15T00:31:48.968Z,6.87
2023-05-15T00:34:15.903Z,6.90
2023-05-15T00:36:42.850Z,5.25
2023-05-15T00:39:09.717Z,5.40
2023-05-15T00:41:37.476Z,5.45
2023-05-15T00:44:04.558Z,5.07
2023-05-15T00:46:32.601Z,5.00
2023-05-15T00:48:59.911Z,5.30
2023-05-15T00:51:27.456Z,3.62
2023-05-15T00:53:55.155Z,4.25
2023-05-15T00:56:22.308Z,4.15
2023-05-15T00:58:55.865Z,4.80
2023-05-15T01:01:22.842Z,4.40
2023-05-15T01:03:49.893Z,4.95
2023-05-15T01:06:16.776Z,4.28
2023-05-15T01:08:46.240Z,4.12
2023-05-15T01:11:14.734Z,4.05
2023-05-15T01:13:41.651Z,3.92
2023-05-15T01:16:09.326Z,3.45
2023-05-15T01:18:52.436Z,4.00
2023-05-15T01:21:34.569Z,3.53
2023-05-15T01:24:26.380Z,3.70
2023-05-15T01:27:05.380Z,3.67
2023-05-15T01:30:09.502Z,3.80
2023-05-15T01:33:06.053Z,3.90
2023-05-15T01:36:01.129Z,3.90
2023-05-15T01:38:39.243Z,3.53
2023-05-15T01:41:09.705Z,3.80
2023-05-15T01:43:40.361Z,4.00
2023-05-15T01:46:08.056Z,4.12
2023-05-15T01:48:36.645Z,3.72
2023-05-15T01:51:05.416Z,3.87
2023-05-15T01:53:33.334Z,3.70
2023-05-15T01:56:00.306Z,3.95
2023-05-15T01:58:27.735Z,4.20
2023-05-15T02:00:55.506Z,4.12
2023-05-15T02:03:22.526Z,4.00
2023-05-15T02:05:49.877Z,4.57
2023-05-15T02:08:16.992Z,4.53
2023-05-15T02:10:44.190Z,4.30
2023-05-15T02:13:11.695Z,4.22
2023-05-15T02:15:38.891Z,4.57
2023-05-15T02:18:06.064Z,5.10
2023-05-15T02:20:32.937Z,5.18
2023-05-15T02:22:59.808Z,5.85
2023-05-15T02:25:35.318Z,6.12
2023-05-15T02:28:05.116Z,6.30
2023-05-15T02:30:46.731Z,6.25
2023-05-15T02:33:25.618Z,6.60
2023-05-15T02:35:55.244Z,6.22
2023-05-15T02:38:41.693Z,6.65
2023-05-15T02:41:09.982Z,6.20
2023-05-15T02:43:37.484Z,6.35
2023-05-15T02:46:05.633Z,6.47
2023-05-15T02:48:34.941Z,6.25
2023-05-15T02:51:01.807Z,6.43
2023-05-15T02:53:28.874Z,6.35
2023-05-15T02:55:55.684Z,6.30
2023-05-15T02:58:22.500Z,6.97
2023-05-15T03:00:49.463Z,6.75
2023-05-15T03:03:16.332Z,6.30
2023-05-15T03:05:43.164Z,5.97
2023-05-15T03:08:09.992Z,4.80
2023-05-15T03:10:36.834Z,4.35
2023-05-15T03:13:03.755Z,4.78
2023-05-15T03:15:30.660Z,4.22
2023-05-15T03:17:57.583Z,4.95
2023-05-15T03:20:24.545Z,4.35
2023-05-15T03:22:51.384Z,4.57
2023-05-15T03:25:18.385Z,4.72
2023-05-15T03:27:45.216Z,4.80
2023-05-15T03:30:21.887Z,4.47
2023-05-15T03:32:48.804Z,5.12
2023-05-15T03:35:15.694Z,4.85
2023-05-15T03:37:42.587Z,4.30
2023-05-15T03:40:09.784Z,5.62
2023-05-15T03:42:36.622Z,5.07
2023-05-15T03:45:03.527Z,5.40
2023-05-15T03:47:30.473Z,5.18
2023-05-15T03:49:57.343Z,4.80
2023-05-15T03:52:24.159Z,4.70
2023-05-15T03:54:51.144Z,4.43
2023-05-15T03:57:18.045Z,4.07
2023-05-15T03:59:48.855Z,4.40
2023-05-15T04:02:15.822Z,4.35
2023-05-15T04:04:44.417Z,3.80
2023-05-15T04:07:11.283Z,3.92
2023-05-15T04:09:39.103Z,3.78
2023-05-15T04:12:06.327Z,3.15
2023-05-15T04:14:33.166Z,3.40
2023-05-15T04:16:59.979Z,3.12
2023-05-15T04:19:30.871Z,3.20
2023-05-15T04:21:57.670Z,3.60
2023-05-15T04:24:24.483Z,2.90
2023-05-15T04:26:51.462Z,2.85
2023-05-15T04:29:18.367Z,2.80
2023-05-15T04:31:45.303Z,2.85
2023-05-15T04:34:12.257Z,2.85
2023-05-15T04:36:40.662Z,2.90
2023-05-15T04:39:08.525Z,2.83
2023-05-15T04:41:35.361Z,2.80
2023-05-15T04:44:02.174Z,2.72
2023-05-15T04:46:29.524Z,3.08
2023-05-15T04:48:56.715Z,2.67
2023-05-15T04:51:23.593Z,2.70
2023-05-15T04:53:50.453Z,2.47
2023-05-15T04:56:17.300Z,2.17
2023-05-15T04:58:44.134Z,2.20
2023-05-15T05:01:10.978Z,2.10
2023-05-15T05:03:37.916Z,2.28
2023-05-15T05:06:05.055Z,2.42
2023-05-15T05:08:34.176Z,2.40
2023-05-15T05:11:00.994Z,2.83
2023-05-15T05:13:28.015Z,2.62
2023-05-15T05:15:54.897Z,2.62
2023-05-15T05:18:21.805Z,2.67
2023-05-15T05:20:48.656Z,2.45
2023-05-15T05:23:15.480Z,2.75
2023-05-15T05:25:42.493Z,2.87
2023-05-15T05:28:09.335Z,2.42
2023-05-15T05:30:36.147Z,2.60
2023-05-15T05:33:03.148Z,2.90
2023-05-15T05:35:30.173Z,2.45
2023-05-15T05:37:56.990Z,3.05
2023-05-15T05:40:23.949Z,2.80
2023-05-15T05:42:50.837Z,2.42
2023-05-15T05:45:17.800Z,2.78
2023-05-15T05:47:44.693Z,3.22
2023-05-15T05:50:12.046Z,2.67
2023-05-15T05:52:38.873Z,2.00
2023-05-15T05:55:06.180Z,2.53
2023-05-15T05:57:33.113Z,2.35
2023-05-15T06:00:02.330Z,2.55
2023-05-15T06:02:29.353Z,2.45
2023-05-15T06:04:56.305Z,2.33
2023-05-15T06:07:23.609Z,2.60
2023-05-15T06:09:50.445Z,2.92
2023-05-15T06:12:17.358Z,2.50
2023-05-15T06:14:44.211Z,3.90
2023-05-15T06:17:11.202Z,2.28
2023-05-15T06:19:38.187Z,2.45
2023-05-15T06:22:05.180Z,2.67
2023-05-15T06:24:32.134Z,2.62
2023-05-15T06:26:58.953Z,2.65
2023-05-15T06:29:27.243Z,2.85
2023-05-15T06:31:54.102Z,2.33
2023-05-15T06:34:20.948Z,2.30
2023-05-15T06:36:47.785Z,2.10
2023-05-15T06:39:15.645Z,2.15
2023-05-15T06:41:42.510Z,2.37
2023-05-15T06:44:09.339Z,2.17
2023-05-15T06:46:36.217Z,2.00
2023-05-15T06:49:03.290Z,3.15
2023-05-15T06:51:30.137Z,2.00
2023-05-15T06:53:57.024Z,1.90
2023-05-15T06:56:24.187Z,1.90
2023-05-15T06:58:51.348Z,2.30
2023-05-15T07:01:18.236Z,2.10
2023-05-15T07:03:45.195Z,2.30
2023-05-15T07:06:12.044Z,2.08
2023-05-15T07:08:42.206Z,1.80
2023-05-15T07:11:09.137Z,1.83
2023-05-15T07:13:36.136Z,1.77
2023-05-15T07:16:03.766Z,2.20
2023-05-15T07:18:31.679Z,2.40
2023-05-15T07:21:00.263Z,2.35
2023-05-15T07:23:27.302Z,2.25
2023-05-15T07:25:57.008Z,2.12
2023-05-15T07:28:23.930Z,2.20
2023-05-15T07:30:51.100Z,2.37
2023-05-15T07:33:17.984Z,2.08
2023-05-15T07:35:44.877Z,2.17
2023-05-15T07:38:11.738Z,2.30
2023-05-15T07:40:38.908Z,2.47
2023-05-15T07:43:05.754Z,2.25
2023-05-15T07:45:32.639Z,2.10
2023-05-15T07:48:14.280Z,1.90
2023-05-15T07:50:41.356Z,1.95
2023-05-15T07:53:08.264Z,2.40
2023-05-15T07:55:35.114Z,2.58
2023-05-15T07:58:01.955Z,2.22
2023-05-15T08:00:29.073Z,1.98
2023-05-15T08:02:56.509Z,2.33
2023-05-15T08:05:23.532Z,1.95
2023-05-15T08:07:50.963Z,2.10
2023-05-15T08:10:17.859Z,1.85
2023-05-15T08:12:46.804Z,2.95
2023-05-15T08:15:13.972Z,2.20
2023-05-15T08:17:41.594Z,2.87
2023-05-15T08:20:08.983Z,2.42
2023-05-15T08:22:35.955Z,2.05
2023-05-15T08:25:07.186Z,2.28
2023-05-15T08:27:34.075Z,2.30
2023-05-15T08:30:00.955Z,2.00
2023-05-15T08:32:30.913Z,1.92
2023-05-15T08:34:58.310Z,2.30
2023-05-15T08:37:25.289Z,2.40
2023-05-15T08:39:52.127Z,2.10
2023-05-15T08:42:22.111Z,2.15
2023-05-15T08:44:48.975Z,2.30
2023-05-15T08:47:16.226Z,1.98
2023-05-15T08:50:01.516Z,2.20
2023-05-15T08:52:29.070Z,2.00
2023-05-15T08:54:56.356Z,2.00
2023-05-15T08:57:23.332Z,1.80
2023-05-15T08:59:51.818Z,2.40
2023-05-15T09:02:19.902Z,2.20
2023-05-15T09:04:46.913Z,2.45
2023-05-15T09:07:15.808Z,2.40
2023-05-15T09:09:45.613Z,2.85
2023-05-15T09:12:15.668Z,2.80
2023-05-15T09:14:45.944Z,2.33
2023-05-15T09:17:12.913Z,2.33
2023-05-15T09:19:42.974Z,2.00
2023-05-15T09:22:24.436Z,1.55
2023-05-15T09:24:53.423Z,1.67
2023-05-15T09:27:20.763Z,1.73
2023-05-15T09:29:47.677Z,1.40
2023-05-15T09:32:15.403Z,1.90
2023-05-15T09:34:44.112Z,1.85
2023-05-15T09:37:13.290Z,2.08
2023-05-15T09:39:45.046Z,2.12
2023-05-15T09:42:15.916Z,2.00
2023-05-15T09:44:43.816Z,1.70
2023-05-15T09:47:11.862Z,2.15
2023-05-15T09:49:39.149Z,2.30
2023-05-15T09:52:10.034Z,2.22
2023-05-15T09:54:37.689Z,2.22
2023-05-15T09:57:09.521Z,2.20
2023-05-15T09:59:36.895Z,2.47
2023-05-15T10:02:03.893Z,2.30
2023-05-15T10:04:35.927Z,2.28
2023-05-15T10:07:02.811Z,2.10
2023-05-15T10:09:32.873Z,2.20
2023-05-15T10:11:59.920Z,2.03
2023-05-15T10:14:28.542Z,2.45
2023-05-15T10:16:56.631Z,2.10
2023-05-15T10:19:24.164Z,2.10
2023-05-15T10:21:51.916Z,2.08
2023-05-15T10:24:20.754Z,2.05
2023-05-15T10:26:48.024Z,2.10
2023-05-15T10:29:16.924Z,2.30
2023-05-15T10:31:44.043Z,1.80
2023-05-15T10:34:11.256Z,2.10
2023-05-15T10:36:38.839Z,2.20
2023-05-15T10:39:07.891Z,1.85
2023-05-15T10:41:37.487Z,1.95
2023-05-15T10:44:04.525Z,2.00
2023-05-15T10:46:33.846Z,2.37
2023-05-15T10:49:01.861Z,1.92
2023-05-15T10:51:30.967Z,2.17
2023-05-15T10:53:57.912Z,1.73
2023-05-15T10:56:30.794Z,1.83
2023-05-15T10:58:57.990Z,1.90
2023-05-15T11:01:26.784Z,1.70
2023-05-15T11:04:11.242Z,1.50
2023-05-15T11:06:40.451Z,1.67
2023-05-15T11:09:22.831Z,1.67
2023-05-15T11:11:52.721Z,1.50
2023-05-15T11:14:20.027Z,1.70
2023-05-15T11:16:53.332Z,1.60
2023-05-15T11:19:31.375Z,1.70
2023-05-15T11:21:58.848Z,1.42
2023-05-15T11:24:33.178Z,1.30
2023-05-15T11:27:04.488Z,1.52
2023-05-15T11:29:35.277Z,1.50
2023-05-15T11:32:02.183Z,1.45
2023-05-15T11:34:35.859Z,1.50
2023-05-15T11:37:02.756Z,1.65
2023-05-15T11:39:29.741Z,1.50
2023-05-15T11:41:57.113Z,1.30
2023-05-15T11:44:24.936Z,1.37
2023-05-15T11:46:51.953Z,1.40
2023-05-15T11:49:20.110Z,1.52
2023-05-15T11:51:50.626Z,1.60
2023-05-15T11:54:17.875Z,1.40
2023-05-15T11:56:45.155Z,1.50
2023-05-15T11:59:15.281Z,1.77
2023-05-15T12:01:43.101Z,1.20
2023-05-15T12:04:15.007Z,1.33
2023-05-15T12:06:47.495Z,1.20
2023-05-15T12:09:16.825Z,1.25
2023-05-15T12:11:52.263Z,1.23
2023-05-15T12:14:29.437Z,1.40
2023-05-15T12:17:02.991Z,1.20
2023-05-15T12:19:33.580Z,1.30
2023-05-15T12:22:00.572Z,1.60
2023-05-15T12:24:27.422Z,1.60
2023-05-15T12:26:56.622Z,1.20
2023-05-15T12:29:31.396Z,1.37
2023-05-15T12:31:58.379Z,1.27
2023-05-15T12:34:26.259Z,1.48
2023-05-15T12:36:53.069Z,1.12
2023-05-15T12:39:19.886Z,1.30
2023-05-15T12:41:47.808Z,1.15
2023-05-15T12:44:17.363Z,1.30
2023-05-15T12:46:44.415Z,1.60
2023-05-15T12:49:12.145Z,1.35
2023-05-15T12:51:45.441Z,1.50
2023-05-15T12:54:20.108Z,1.42
2023-05-15T12:56:49.944Z,1.30
2023-05-15T12:59:19.092Z,1.42
2023-05-15T13:01:46.176Z,1.55
2023-05-15T13:04:19.470Z,1.40
2023-05-15T13:06:47.975Z,1.60
2023-05-15T13:09:30.781Z,1.70
2023-05-15T13:11:57.598Z,1.50
2023-05-15T13:14:27.349Z,1.48
2023-05-15T13:16:54.180Z,1.37
2023-05-15T13:19:22.143Z,1.40
2023-05-15T13:21:50.918Z,1.40
2023-05-15T13:24:17.959Z,1.50
2023-05-15T13:26:44.806Z,1.30
2023-05-15T13:29:11.654Z,1.27
2023-05-15T13:31:38.666Z,1.23
2023-05-15T13:34:05.596Z,1.45
2023-05-15T13:36:32.490Z,1.48
2023-05-15T13:39:12.296Z,1.27
2023-05-15T13:41:39.206Z,1.20
2023-05-15T13:44:06.526Z,1.55
2023-05-15T13:46:33.565Z,1.20
2023-05-15T13:49:07.792Z,1.25
2023-05-15T13:51:34.649Z,1.40
2023-05-15T13:54:01.537Z,1.50
2023-05-15T13:56:28.490Z,1.40
2023-05-15T13:58:56.347Z,1.40
2023-05-15T14:01:23.281Z,1.40
2023-05-15T14:03:50.161Z,1.40
2023-05-15T14:06:17.077Z,1.23
2023-05-15T14:08:44.975Z,1.40
2023-05-15T14:11:12.100Z,1.80
2023-05-15T14:13:38.884Z,1.50
2023-05-15T14:16:06.037Z,1.30
2023-05-15T14:18:32.984Z,1.35
2023-05-15T14:20:59.846Z,1.10
2023-05-15T14:23:26.680Z,1.30
2023-05-15T14:25:53.496Z,1.10
2023-05-15T14:28:20.343Z,0.90
2023-05-15T14:30:47.253Z,1.05
2023-05-15T14:33:14.414Z,1.00
2023-05-15T14:35:41.313Z,1.10
2023-05-15T14:38:13.072Z,1.17
2023-05-15T14:40:40.030Z,1.17
2023-05-15T14:43:06.802Z,1.30
2023-05-15T14:45:33.640Z,1.10
2023-05-15T14:48:00.599Z,1.30
2023-05-15T14:50:27.892Z,1.40
2023-05-15T14:52:54.954Z,1.20
2023-05-15T14:55:24.732Z,1.20
2023-05-15T14:57:51.536Z,1.20
2023-05-15T15:00:18.518Z,1.20
2023-05-15T15:02:46.439Z,1.30
2023-05-15T15:05:13.462Z,1.02
2023-05-15T15:08:00.856Z,1.20
2023-05-15T15:10:28.325Z,1.30
2023-05-15T15:12:55.352Z,1.40
2023-05-15T15:15:22.996Z,1.30
2023-05-15T15:17:51.207Z,1.10
2023-05-15T15:20:20.394Z,1.25
2023-05-15T15:22:47.752Z,1.30
2023-05-15T15:25:14.641Z,1.30
2023-05-15T15:27:41.463Z,1.08
2023-05-15T15:30:18.365Z,1.02
2023-05-15T15:32:45.643Z,1.12
2023-05-15T15:35:13.254Z,1.10
2023-05-15T15:37:40.142Z,1.20
2023-05-15T15:40:10.136Z,0.98
2023-05-15T15:42:37.032Z,1.10
2023-05-15T15:45:04.876Z,0.88
2023-05-15T15:47:32.460Z,0.90
2023-05-15T15:50:00.013Z,0.90
2023-05-15T15:52:27.368Z,0.85
2023-05-15T15:54:54.396Z,0.82
2023-05-15T15:57:21.883Z,0.65
2023-05-15T15:59:49.421Z,0.80
2023-05-15T16:02:17.558Z,0.90
2023-05-15T16:04:44.807Z,0.90
2023-05-15T16:07:11.698Z,0.90
2023-05-15T16:09:40.677Z,0.70
2023-05-15T16:12:07.722Z,0.70
2023-05-15T16:14:34.546Z,0.77
2023-05-15T16:17:02.697Z,0.80
2023-05-15T16:19:30.184Z,0.75
2023-05-15T16:21:57.127Z,0.70
2023-05-15T16:24:24.422Z,0.60
2023-05-15T16:26:55.273Z,0.60
2023-05-15T16:29:24.079Z,0.47
2023-05-15T16:31:51.213Z,0.60
2023-05-15T16:34:18.150Z,0.70
2023-05-15T16:36:44.998Z,0.65
2023-05-15T16:39:11.888Z,0.68
2023-05-15T16:41:38.746Z,0.70
2023-05-15T16:44:10.840Z,0.90
2023-05-15T16:46:38.428Z,0.70
2023-05-15T16:49:13.261Z,0.70
2023-05-15T16:51:40.125Z,0.55
2023-05-15T16:54:07.515Z,0.60
2023-05-15T16:56:34.403Z,0.73
2023-05-15T16:59:01.260Z,0.70
2023-05-15T17:01:28.158Z,0.90
2023-05-15T17:03:55.094Z,0.90
2023-05-15T17:06:21.930Z,0.80
2023-05-15T17:08:48.827Z,0.80
2023-05-15T17:11:15.697Z,0.80
2023-05-15T17:13:42.568Z,0.70
2023-05-15T17:16:09.471Z,0.90
2023-05-15T17:18:47.626Z,0.95
2023-05-15T17:21:14.455Z,0.70
2023-05-15T17:23:41.356Z,0.80
2023-05-15T17:26:08.232Z,0.98
2023-05-15T17:28:35.853Z,0.80
2023-05-15T17:31:10.965Z,0.80
2023-05-15T17:33:37.786Z,0.90
2023-05-15T17:36:04.869Z,0.90
2023-05-15T17:38:32.751Z,1.08
2023-05-15T17:40:59.536Z,1.08
2023-05-15T17:43:26.363Z,0.82
2023-05-15T17:45:53.287Z,1.20
2023-05-15T17:48:20.175Z,1.20
2023-05-15T17:50:47.028Z,1.20
2023-05-15T17:53:13.911Z,1.20
2023-05-15T17:55:40.703Z,1.12
2023-05-15T17:58:07.549Z,1.25
2023-05-15T18:00:34.345Z,1.25
2023-05-15T18:03:01.723Z,1.25
2023-05-15T18:05:28.931Z,1.05
2023-05-15T18:07:58.260Z,1.40
2023-05-15T18:10:25.150Z,1.15
2023-05-15T18:12:52.124Z,1.25
2023-05-15T18:15:18.949Z,1.20
2023-05-15T18:17:45.874Z,1.33
2023-05-15T18:20:13.255Z,1.20
2023-05-15T18:22:41.129Z,1.10
2023-05-15T18:25:08.241Z,1.20
2023-05-15T18:27:35.124Z,1.00
2023-05-15T18:30:02.388Z,1.10
2023-05-15T18:32:29.256Z,1.20
2023-05-15T18:34:56.213Z,1.05
2023-05-15T18:37:23.137Z,1.20
2023-05-15T18:39:49.987Z,1.10
2023-05-15T18:42:16.958Z,1.20
2023-05-15T18:44:44.681Z,1.23
2023-05-15T18:47:11.561Z,1.40
2023-05-15T18:49:38.425Z,1.20
2023-05-15T18:52:06.235Z,1.10
2023-05-15T18:54:33.117Z,1.10
2023-05-15T18:57:00.107Z,1.20
2023-05-15T18:59:28.875Z,1.27
2023-05-15T19:01:55.741Z,1.30
2023-05-15T19:04:22.725Z,1.00
2023-05-15T19:06:50.495Z,1.30
2023-05-15T19:09:20.800Z,1.35
2023-05-15T19:11:49.492Z,1.10
2023-05-15T19:14:18.093Z,1.10
2023-05-15T19:16:46.238Z,1.50
2023-05-15T19:19:13.668Z,1.33
2023-05-15T19:21:40.639Z,1.48
2023-05-15T19:24:07.642Z,1.50
2023-05-15T19:26:34.653Z,1.30
2023-05-15T19:29:01.491Z,1.10
2023-05-15T19:31:31.905Z,1.15
2023-05-15T19:34:00.119Z,2.87
2023-05-15T19:36:27.405Z,1.17
2023-05-15T19:38:54.285Z,1.40
2023-05-15T19:41:22.441Z,1.35
2023-05-15T19:43:50.962Z,1.40
2023-05-15T19:46:18.655Z,1.37
2023-05-15T19:48:45.767Z,1.10
2023-05-15T19:51:12.758Z,1.25
2023-05-15T19:53:39.626Z,1.60
2023-05-15T19:56:06.687Z,1.60
2023-05-15T19:58:46.693Z,1.25
2023-05-15T20:01:13.827Z,1.40
2023-05-15T20:03:40.813Z,1.37
2023-05-15T20:06:07.820Z,1.50
2023-05-15T20:08:34.665Z,1.50
2023-05-15T20:11:01.637Z,2.00
2023-05-15T20:13:28.520Z,2.08
2023-05-15T20:16:00.084Z,1.90
2023-05-15T20:18:28.697Z,1.90
2023-05-15T20:20:56.005Z,2.15
2023-05-15T20:23:23.220Z,1.60
2023-05-15T20:25:50.917Z,1.90
2023-05-15T20:28:27.311Z,2.10
2023-05-15T20:30:57.565Z,2.30
2023-05-15T20:33:24.465Z,2.20
2023-05-15T20:35:51.782Z,2.33
2023-05-15T20:38:18.612Z,1.90
2023-05-15T20:40:45.452Z,1.87
2023-05-15T20:43:12.302Z,1.85
2023-05-15T20:45:39.692Z,1.80
2023-05-15T20:48:06.959Z,1.62
2023-05-15T20:50:33.864Z,1.70
2023-05-15T20:53:00.767Z,1.58
2023-05-15T20:55:27.690Z,2.12
2023-05-15T20:57:54.500Z,2.08
2023-05-15T21:00:21.484Z,1.80
2023-05-15T21:02:48.494Z,1.87
2023-05-15T21:05:15.591Z,2.20
2023-05-15T21:07:42.539Z,2.00
2023-05-15T21:10:09.530Z,2.05
2023-05-15T21:12:36.464Z,2.05
2023-05-15T21:15:04.430Z,2.22
2023-05-15T21:17:31.247Z,2.30
2023-05-15T21:19:58.654Z,2.22
2023-05-15T21:22:25.873Z,2.70
2023-05-15T21:24:52.743Z,2.55
2023-05-15T21:27:19.569Z,2.80
2023-05-15T21:29:46.717Z,2.67
2023-05-15T21:32:13.705Z,2.40
2023-05-15T21:34:41.222Z,1.83
2023-05-15T21:37:08.089Z,2.05
2023-05-15T21:39:34.878Z,2.10
2023-05-15T21:42:01.740Z,1.70
2023-05-15T21:44:28.531Z,2.10
2023-05-15T21:46:56.825Z,2.60
2023-05-15T21:49:27.599Z,2.53
2023-05-15T21:51:54.433Z,2.10
2023-05-15T21:54:21.286Z,1.98
2023-05-15T21:56:48.148Z,2.00
2023-05-15T21:59:15.995Z,2.17
2023-05-15T22:01:43.005Z,2.03
2023-05-15T22:04:10.054Z,1.80
2023-05-15T22:06:36.956Z,1.60
2023-05-15T22:09:03.857Z,1.60
2023-05-15T22:11:30.728Z,1.62
2023-05-15T22:13:57.549Z,1.50
2023-05-15T22:16:24.430Z,1.87
2023-05-15T22:18:54.197Z,1.65
2023-05-15T22:21:21.221Z,1.80
2023-05-15T22:23:48.383Z,1.50
2023-05-15T22:26:15.340Z,1.30
2023-05-15T22:28:42.384Z,1.40
2023-05-15T22:31:09.260Z,1.23
2023-05-15T22:33:36.196Z,1.30
2023-05-15T22:36:03.159Z,1.40
2023-05-15T22:38:31.107Z,1.33
2023-05-15T22:40:57.988Z,1.48
2023-05-15T22:43:25.093Z,1.45
2023-05-15T22:45:52.460Z,1.50
2023-05-15T22:48:21.013Z,1.70
2023-05-15T22:50:47.872Z,1.50
2023-05-15T22:53:15.199Z,1.67
2023-05-15T22:55:42.406Z,1.58
2023-05-15T22:58:09.258Z,1.52
2023-05-15T23:00:36.163Z,1.70
2023-05-15T23:03:03.204Z,1.77
2023-05-15T23:05:30.184Z,1.37
2023-05-15T23:08:34.849Z,1.77
2023-05-15T23:11:01.808Z,1.70
2023-05-15T23:13:28.758Z,1.62
2023-05-15T23:15:55.636Z,1.45
2023-05-15T23:18:22.489Z,1.60
2023-05-15T23:20:49.411Z,1.58
2023-05-15T23:23:16.310Z,1.50
2023-05-15T23:25:43.341Z,1.30
2023-05-15T23:28:16.292Z,1.20
2023-05-15T23:30:43.165Z,1.33
2023-05-15T23:33:10.281Z,1.30
2023-05-15T23:35:37.188Z,1.00
2023-05-15T23:38:14.291Z,1.50
2023-05-15T23:43:07.823Z,1.17
2023-05-15T23:45:35.344Z,1.42
2023-05-15T23:48:02.180Z,1.37
2023-05-15T23:50:29.203Z,1.37
2023-05-15T23:52:56.199Z,1.27
2023-05-15T23:55:23.068Z,1.30
2023-05-15T23:57:49.997Z,1.40
